sensor_id;sensor_type;location;lat;lon;timestamp;P1;durP1;ratioP1;P2;durP2;ratioP2
6019;SDS011;3038;51.122;6.840;2022-12-18T00:02:09;18.60;;;13.97;;
6019;SDS011;3038;51.122;6.840;2022-12-18T00:04:37;19.40;;;12.70;;
6019;SDS011;3038;51.122;6.840;2022-12-18T00:07:03;16.50;;;12.53;;
6019;SDS011;3038;51.122;6.840;2022-12-18T00:09:28;23.17;;;13.60;;
6019;SDS011;3038;51.122;6.840;2022-12-18T00:11:53;19.37;;;12.97;;
6019;SDS011;3038;51.122;6.840;2022-12-18T00:14:19;16.40;;;12.50;;
6019;SDS011;3038;51.122;6.840;2022-12-18T00:16:45;15.60;;;12.10;;
6019;SDS011;3038;51.122;6.840;2022-12-18T00:19:11;20.57;;;12.57;;
6019;SDS011;3038;51.122;6.840;2022-12-18T00:21:37;21.13;;;13.50;;
6019;SDS011;3038;51.122;6.840;2022-12-18T00:24:06;19.03;;;13.30;;
6019;SDS011;3038;51.122;6.840;2022-12-18T00:26:32;16.63;;;11.60;;
6019;SDS011;3038;51.122;6.840;2022-12-18T00:28:59;19.63;;;12.23;;
6019;SDS011;3038;51.122;6.840;2022-12-18T00:31:30;17.90;;;12.97;;
6019;SDS011;3038;51.122;6.840;2022-12-18T00:33:56;18.43;;;12.47;;
6019;SDS011;3038;51.122;6.840;2022-12-18T00:36:23;15.50;;;10.90;;
6019;SDS011;3038;51.122;6.840;2022-12-18T00:38:51;17.73;;;13.33;;
6019;SDS011;3038;51.122;6.840;2022-12-18T00:41:18;14.70;;;11.80;;
6019;SDS011;3038;51.122;6.840;2022-12-18T00:44:02;15.13;;;12.27;;
6019;SDS011;3038;51.122;6.840;2022-12-18T00:46:28;17.40;;;13.07;;
6019;SDS011;3038;51.122;6.840;2022-12-18T00:48:54;19.63;;;13.60;;
6019;SDS011;3038;51.122;6.840;2022-12-18T00:51:19;14.63;;;11.63;;
6019;SDS011;3038;51.122;6.840;2022-12-18T00:53:44;16.90;;;13.27;;
6019;SDS011;3038;51.122;6.840;2022-12-18T00:56:10;17.27;;;12.03;;
6019;SDS011;3038;51.122;6.840;2022-12-18T00:58:35;19.10;;;12.30;;
6019;SDS011;3038;51.122;6.840;2022-12-18T01:01:00;15.57;;;11.73;;
6019;SDS011;3038;51.122;6.840;2022-12-18T01:03:26;18.80;;;11.67;;
6019;SDS011;3038;51.122;6.840;2022-12-18T01:05:51;19.63;;;12.27;;
6019;SDS011;3038;51.122;6.840;2022-12-18T01:08:16;17.90;;;12.87;;
6019;SDS011;3038;51.122;6.840;2022-12-18T01:10:42;17.00;;;12.20;;
6019;SDS011;3038;51.122;6.840;2022-12-18T01:13:07;20.67;;;14.33;;
6019;SDS011;3038;51.122;6.840;2022-12-18T01:15:33;15.57;;;11.77;;
6019;SDS011;3038;51.122;6.840;2022-12-18T01:17:58;16.57;;;11.60;;
6019;SDS011;3038;51.122;6.840;2022-12-18T01:20:24;16.10;;;11.57;;
6019;SDS011;3038;51.122;6.840;2022-12-18T01:22:49;20.23;;;12.30;;
6019;SDS011;3038;51.122;6.840;2022-12-18T01:25:14;21.43;;;13.20;;
6019;SDS011;3038;51.122;6.840;2022-12-18T01:27:40;18.00;;;12.97;;
6019;SDS011;3038;51.122;6.840;2022-12-18T01:30:05;16.63;;;12.30;;
6019;SDS011;3038;51.122;6.840;2022-12-18T01:32:31;18.67;;;13.00;;
6019;SDS011;3038;51.122;6.840;2022-12-18T01:34:57;17.20;;;14.03;;
6019;SDS011;3038;51.122;6.840;2022-12-18T01:37:22;24.27;;;14.00;;
6019;SDS011;3038;51.122;6.840;2022-12-18T01:39:47;17.00;;;12.93;;
6019;SDS011;3038;51.122;6.840;2022-12-18T01:42:15;16.77;;;12.37;;
6019;SDS011;3038;51.122;6.840;2022-12-18T01:44:52;16.60;;;12.80;;
6019;SDS011;3038;51.122;6.840;2022-12-18T01:47:38;18.33;;;12.40;;
6019;SDS011;3038;51.122;6.840;2022-12-18T01:50:31;19.90;;;14.10;;
6019;SDS011;3038;51.122;6.840;2022-12-18T01:53:12;17.23;;;13.00;;
6019;SDS011;3038;51.122;6.840;2022-12-18T01:55:42;16.20;;;12.33;;
6019;SDS011;3038;51.122;6.840;2022-12-18T01:58:11;20.00;;;13.60;;
6019;SDS011;3038;51.122;6.840;2022-12-18T02:00:37;13.67;;;11.10;;
6019;SDS011;3038;51.122;6.840;2022-12-18T02:03:02;17.07;;;12.73;;
6019;SDS011;3038;51.122;6.840;2022-12-18T02:05:44;17.80;;;13.03;;
6019;SDS011;3038;51.122;6.840;2022-12-18T02:08:16;18.50;;;10.97;;
6019;SDS011;3038;51.122;6.840;2022-12-18T02:16:21;12.73;;;9.97;;
6019;SDS011;3038;51.122;6.840;2022-12-18T02:19:00;17.43;;;12.17;;
6019;SDS011;3038;51.122;6.840;2022-12-18T02:21:46;18.27;;;11.13;;
6019;SDS011;3038;51.122;6.840;2022-12-18T02:24:36;16.10;;;11.60;;
6019;SDS011;3038;51.122;6.840;2022-12-18T02:27:36;16.17;;;11.67;;
6019;SDS011;3038;51.122;6.840;2022-12-18T02:30:04;16.70;;;11.53;;
6019;SDS011;3038;51.122;6.840;2022-12-18T02:32:33;18.73;;;12.83;;
6019;SDS011;3038;51.122;6.840;2022-12-18T02:35:05;18.67;;;12.53;;
6019;SDS011;3038;51.122;6.840;2022-12-18T02:37:32;17.10;;;11.80;;
6019;SDS011;3038;51.122;6.840;2022-12-18T02:40:00;16.57;;;12.27;;
6019;SDS011;3038;51.122;6.840;2022-12-18T02:42:28;17.70;;;12.80;;
6019;SDS011;3038;51.122;6.840;2022-12-18T02:44:54;14.63;;;11.30;;
6019;SDS011;3038;51.122;6.840;2022-12-18T02:47:24;14.70;;;10.60;;
6019;SDS011;3038;51.122;6.840;2022-12-18T02:52:35;17.47;;;10.70;;
6019;SDS011;3038;51.122;6.840;2022-12-18T02:58:06;13.63;;;10.00;;
6019;SDS011;3038;51.122;6.840;2022-12-18T03:00:41;14.57;;;9.80;;
6019;SDS011;3038;51.122;6.840;2022-12-18T03:05:50;16.50;;;10.70;;
6019;SDS011;3038;51.122;6.840;2022-12-18T03:08:21;13.97;;;10.87;;
6019;SDS011;3038;51.122;6.840;2022-12-18T03:10:50;19.10;;;12.30;;
6019;SDS011;3038;51.122;6.840;2022-12-18T03:13:23;16.00;;;11.70;;
6019;SDS011;3038;51.122;6.840;2022-12-18T03:15:55;12.97;;;11.23;;
6019;SDS011;3038;51.122;6.840;2022-12-18T03:18:25;16.00;;;10.80;;
6019;SDS011;3038;51.122;6.840;2022-12-18T03:20:56;15.63;;;11.43;;
6019;SDS011;3038;51.122;6.840;2022-12-18T03:23:25;12.60;;;10.37;;
6019;SDS011;3038;51.122;6.840;2022-12-18T03:25:54;18.13;;;11.50;;
6019;SDS011;3038;51.122;6.840;2022-12-18T03:28:24;17.60;;;11.73;;
6019;SDS011;3038;51.122;6.840;2022-12-18T03:30:54;15.20;;;11.43;;
6019;SDS011;3038;51.122;6.840;2022-12-18T03:35:59;17.67;;;12.63;;
6019;SDS011;3038;51.122;6.840;2022-12-18T03:38:25;14.67;;;11.50;;
6019;SDS011;3038;51.122;6.840;2022-12-18T03:46:28;14.63;;;10.87;;
6019;SDS011;3038;51.122;6.840;2022-12-18T03:49:19;12.63;;;10.40;;
6019;SDS011;3038;51.122;6.840;2022-12-18T03:51:54;16.20;;;12.13;;
6019;SDS011;3038;51.122;6.840;2022-12-18T03:54:26;17.03;;;11.67;;
6019;SDS011;3038;51.122;6.840;2022-12-18T03:57:03;15.03;;;10.80;;
6019;SDS011;3038;51.122;6.840;2022-12-18T03:59:36;19.33;;;12.47;;
6019;SDS011;3038;51.122;6.840;2022-12-18T04:02:03;22.23;;;13.03;;
6019;SDS011;3038;51.122;6.840;2022-12-18T04:04:32;16.00;;;11.67;;
6019;SDS011;3038;51.122;6.840;2022-12-18T04:06:59;18.57;;;10.60;;
6019;SDS011;3038;51.122;6.840;2022-12-18T04:09:25;13.60;;;11.80;;
6019;SDS011;3038;51.122;6.840;2022-12-18T04:11:51;15.80;;;11.43;;
6019;SDS011;3038;51.122;6.840;2022-12-18T04:14:16;16.83;;;11.57;;
6019;SDS011;3038;51.122;6.840;2022-12-18T04:16:42;15.20;;;12.30;;
6019;SDS011;3038;51.122;6.840;2022-12-18T04:19:07;13.93;;;11.33;;
6019;SDS011;3038;51.122;6.840;2022-12-18T04:21:33;13.83;;;10.83;;
6019;SDS011;3038;51.122;6.840;2022-12-18T04:23:58;17.83;;;12.80;;
6019;SDS011;3038;51.122;6.840;2022-12-18T04:26:23;12.97;;;10.93;;
6019;SDS011;3038;51.122;6.840;2022-12-18T04:28:49;15.30;;;10.33;;
6019;SDS011;3038;51.122;6.840;2022-12-18T04:31:14;15.90;;;10.90;;
6019;SDS011;3038;51.122;6.840;2022-12-18T04:33:40;20.90;;;12.10;;
6019;SDS011;3038;51.122;6.840;2022-12-18T04:36:05;14.63;;;10.33;;
6019;SDS011;3038;51.122;6.840;2022-12-18T04:38:31;13.70;;;10.80;;
6019;SDS011;3038;51.122;6.840;2022-12-18T04:40:57;15.20;;;10.73;;
6019;SDS011;3038;51.122;6.840;2022-12-18T04:43:22;14.93;;;11.23;;
6019;SDS011;3038;51.122;6.840;2022-12-18T04:45:48;16.67;;;10.97;;
6019;SDS011;3038;51.122;6.840;2022-12-18T04:48:13;19.33;;;11.47;;
6019;SDS011;3038;51.122;6.840;2022-12-18T04:50:39;15.33;;;11.53;;
6019;SDS011;3038;51.122;6.840;2022-12-18T04:53:04;16.07;;;10.10;;
6019;SDS011;3038;51.122;6.840;2022-12-18T04:55:29;16.17;;;12.37;;
6019;SDS011;3038;51.122;6.840;2022-12-18T04:57:55;15.63;;;11.20;;
6019;SDS011;3038;51.122;6.840;2022-12-18T05:00:20;15.17;;;10.50;;
6019;SDS011;3038;51.122;6.840;2022-12-18T05:02:46;17.97;;;11.83;;
6019;SDS011;3038;51.122;6.840;2022-12-18T05:05:11;15.33;;;11.90;;
6019;SDS011;3038;51.122;6.840;2022-12-18T05:07:37;13.60;;;10.87;;
6019;SDS011;3038;51.122;6.840;2022-12-18T05:10:03;12.47;;;10.87;;
6019;SDS011;3038;51.122;6.840;2022-12-18T05:12:32;15.73;;;10.80;;
6019;SDS011;3038;51.122;6.840;2022-12-18T05:14:57;13.70;;;10.50;;
6019;SDS011;3038;51.122;6.840;2022-12-18T05:17:23;13.30;;;10.07;;
6019;SDS011;3038;51.122;6.840;2022-12-18T05:19:48;12.57;;;9.30;;
6019;SDS011;3038;51.122;6.840;2022-12-18T05:22:14;14.77;;;10.70;;
6019;SDS011;3038;51.122;6.840;2022-12-18T05:24:39;13.23;;;11.03;;
6019;SDS011;3038;51.122;6.840;2022-12-18T05:27:04;15.50;;;10.90;;
6019;SDS011;3038;51.122;6.840;2022-12-18T05:29:30;13.97;;;11.47;;
6019;SDS011;3038;51.122;6.840;2022-12-18T05:31:55;16.83;;;10.90;;
6019;SDS011;3038;51.122;6.840;2022-12-18T05:34:20;13.83;;;10.10;;
6019;SDS011;3038;51.122;6.840;2022-12-18T05:36:46;14.97;;;10.63;;
6019;SDS011;3038;51.122;6.840;2022-12-18T05:39:11;14.57;;;10.47;;
6019;SDS011;3038;51.122;6.840;2022-12-18T05:41:36;13.97;;;10.40;;
6019;SDS011;3038;51.122;6.840;2022-12-18T05:44:02;16.00;;;12.60;;
6019;SDS011;3038;51.122;6.840;2022-12-18T05:46:27;17.50;;;10.90;;
6019;SDS011;3038;51.122;6.840;2022-12-18T05:48:53;12.53;;;10.13;;
6019;SDS011;3038;51.122;6.840;2022-12-18T05:51:19;17.23;;;11.30;;
6019;SDS011;3038;51.122;6.840;2022-12-18T05:53:47;14.90;;;10.60;;
6019;SDS011;3038;51.122;6.840;2022-12-18T05:56:17;12.03;;;9.63;;
6019;SDS011;3038;51.122;6.840;2022-12-18T05:58:45;14.83;;;10.43;;
6019;SDS011;3038;51.122;6.840;2022-12-18T06:01:12;20.07;;;12.83;;
6019;SDS011;3038;51.122;6.840;2022-12-18T06:03:40;19.83;;;14.10;;
6019;SDS011;3038;51.122;6.840;2022-12-18T06:06:12;17.70;;;13.67;;
6019;SDS011;3038;51.122;6.840;2022-12-18T06:08:46;18.67;;;11.20;;
6019;SDS011;3038;51.122;6.840;2022-12-18T06:11:11;15.73;;;10.20;;
6019;SDS011;3038;51.122;6.840;2022-12-18T06:13:37;16.17;;;9.90;;
6019;SDS011;3038;51.122;6.840;2022-12-18T06:16:06;17.53;;;11.43;;
6019;SDS011;3038;51.122;6.840;2022-12-18T06:18:33;15.63;;;10.43;;
6019;SDS011;3038;51.122;6.840;2022-12-18T06:21:01;15.20;;;11.40;;
6019;SDS011;3038;51.122;6.840;2022-12-18T06:23:27;14.37;;;11.13;;
6019;SDS011;3038;51.122;6.840;2022-12-18T06:25:53;15.87;;;10.73;;
6019;SDS011;3038;51.122;6.840;2022-12-18T06:28:18;16.53;;;10.67;;
6019;SDS011;3038;51.122;6.840;2022-12-18T06:30:44;21.80;;;12.93;;
6019;SDS011;3038;51.122;6.840;2022-12-18T06:33:10;17.93;;;13.23;;
6019;SDS011;3038;51.122;6.840;2022-12-18T06:35:35;17.40;;;12.57;;
6019;SDS011;3038;51.122;6.840;2022-12-18T06:38:01;16.87;;;11.40;;
6019;SDS011;3038;51.122;6.840;2022-12-18T06:40:27;15.93;;;9.40;;
6019;SDS011;3038;51.122;6.840;2022-12-18T06:42:53;16.60;;;10.47;;
6019;SDS011;3038;51.122;6.840;2022-12-18T06:45:18;11.13;;;9.70;;
6019;SDS011;3038;51.122;6.840;2022-12-18T06:47:43;16.00;;;10.90;;
6019;SDS011;3038;51.122;6.840;2022-12-18T06:50:09;12.20;;;10.07;;
6019;SDS011;3038;51.122;6.840;2022-12-18T06:52:34;19.27;;;13.07;;
6019;SDS011;3038;51.122;6.840;2022-12-18T06:55:00;13.77;;;11.60;;
6019;SDS011;3038;51.122;6.840;2022-12-18T06:57:26;14.20;;;11.00;;
6019;SDS011;3038;51.122;6.840;2022-12-18T06:59:51;19.03;;;11.70;;
6019;SDS011;3038;51.122;6.840;2022-12-18T07:02:16;17.67;;;11.77;;
6019;SDS011;3038;51.122;6.840;2022-12-18T07:04:42;14.13;;;11.73;;
6019;SDS011;3038;51.122;6.840;2022-12-18T07:07:08;15.80;;;11.07;;
6019;SDS011;3038;51.122;6.840;2022-12-18T07:09:33;14.97;;;10.53;;
6019;SDS011;3038;51.122;6.840;2022-12-18T07:11:58;15.30;;;11.70;;
6019;SDS011;3038;51.122;6.840;2022-12-18T07:14:24;14.73;;;10.73;;
6019;SDS011;3038;51.122;6.840;2022-12-18T07:16:49;15.07;;;11.57;;
6019;SDS011;3038;51.122;6.840;2022-12-18T07:19:14;15.10;;;11.73;;
6019;SDS011;3038;51.122;6.840;2022-12-18T07:21:40;15.30;;;11.50;;
6019;SDS011;3038;51.122;6.840;2022-12-18T07:24:05;14.87;;;10.77;;
6019;SDS011;3038;51.122;6.840;2022-12-18T07:26:31;16.80;;;11.90;;
6019;SDS011;3038;51.122;6.840;2022-12-18T07:28:56;12.40;;;10.83;;
6019;SDS011;3038;51.122;6.840;2022-12-18T07:31:22;17.50;;;12.83;;
6019;SDS011;3038;51.122;6.840;2022-12-18T07:33:49;16.30;;;11.20;;
6019;SDS011;3038;51.122;6.840;2022-12-18T07:36:15;11.57;;;8.77;;
6019;SDS011;3038;51.122;6.840;2022-12-18T07:38:41;18.03;;;13.17;;
6019;SDS011;3038;51.122;6.840;2022-12-18T07:41:08;13.47;;;10.17;;
6019;SDS011;3038;51.122;6.840;2022-12-18T07:43:34;16.33;;;12.20;;
6019;SDS011;3038;51.122;6.840;2022-12-18T07:46:01;22.93;;;12.00;;
6019;SDS011;3038;51.122;6.840;2022-12-18T07:48:27;15.73;;;9.80;;
6019;SDS011;3038;51.122;6.840;2022-12-18T07:50:53;16.97;;;12.40;;
6019;SDS011;3038;51.122;6.840;2022-12-18T07:53:18;19.13;;;12.67;;
6019;SDS011;3038;51.122;6.840;2022-12-18T07:55:43;15.70;;;10.53;;
6019;SDS011;3038;51.122;6.840;2022-12-18T07:58:09;15.90;;;12.43;;
6019;SDS011;3038;51.122;6.840;2022-12-18T08:00:35;18.30;;;12.23;;
6019;SDS011;3038;51.122;6.840;2022-12-18T08:03:00;20.57;;;13.67;;
6019;SDS011;3038;51.122;6.840;2022-12-18T08:05:26;17.53;;;13.10;;
6019;SDS011;3038;51.122;6.840;2022-12-18T08:07:52;16.60;;;12.93;;
6019;SDS011;3038;51.122;6.840;2022-12-18T08:10:18;20.10;;;13.20;;
6019;SDS011;3038;51.122;6.840;2022-12-18T08:12:44;17.40;;;14.07;;
6019;SDS011;3038;51.122;6.840;2022-12-18T08:15:09;18.23;;;11.57;;
6019;SDS011;3038;51.122;6.840;2022-12-18T08:17:35;20.80;;;14.10;;
6019;SDS011;3038;51.122;6.840;2022-12-18T08:20:00;32.77;;;19.23;;
6019;SDS011;3038;51.122;6.840;2022-12-18T08:22:25;61.23;;;41.80;;
6019;SDS011;3038;51.122;6.840;2022-12-18T08:24:51;89.93;;;56.70;;
6019;SDS011;3038;51.122;6.840;2022-12-18T08:27:16;91.93;;;59.80;;
6019;SDS011;3038;51.122;6.840;2022-12-18T08:29:41;56.47;;;36.20;;
6019;SDS011;3038;51.122;6.840;2022-12-18T08:32:07;39.70;;;25.97;;
6019;SDS011;3038;51.122;6.840;2022-12-18T08:34:32;29.60;;;20.90;;
6019;SDS011;3038;51.122;6.840;2022-12-18T08:36:58;24.73;;;18.20;;
6019;SDS011;3038;51.122;6.840;2022-12-18T08:39:23;20.67;;;14.90;;
6019;SDS011;3038;51.122;6.840;2022-12-18T08:41:49;23.33;;;15.80;;
6019;SDS011;3038;51.122;6.840;2022-12-18T08:44:34;27.77;;;17.33;;
6019;SDS011;3038;51.122;6.840;2022-12-18T08:47:02;22.23;;;14.73;;
6019;SDS011;3038;51.122;6.840;2022-12-18T08:49:28;19.53;;;12.73;;
6019;SDS011;3038;51.122;6.840;2022-12-18T08:51:54;17.40;;;13.00;;
6019;SDS011;3038;51.122;6.840;2022-12-18T08:54:20;20.83;;;14.30;;
6019;SDS011;3038;51.122;6.840;2022-12-18T08:56:45;19.43;;;13.70;;
6019;SDS011;3038;51.122;6.840;2022-12-18T08:59:11;20.17;;;14.63;;
6019;SDS011;3038;51.122;6.840;2022-12-18T09:01:36;17.97;;;14.53;;
6019;SDS011;3038;51.122;6.840;2022-12-18T09:04:01;17.13;;;13.20;;
6019;SDS011;3038;51.122;6.840;2022-12-18T09:06:27;17.43;;;13.50;;
6019;SDS011;3038;51.122;6.840;2022-12-18T09:08:52;16.53;;;11.40;;
6019;SDS011;3038;51.122;6.840;2022-12-18T09:11:25;17.13;;;12.60;;
6019;SDS011;3038;51.122;6.840;2022-12-18T09:13:51;19.17;;;13.40;;
6019;SDS011;3038;51.122;6.840;2022-12-18T09:16:18;15.07;;;11.17;;
6019;SDS011;3038;51.122;6.840;2022-12-18T09:18:45;15.93;;;11.10;;
6019;SDS011;3038;51.122;6.840;2022-12-18T09:21:12;17.13;;;12.23;;
6019;SDS011;3038;51.122;6.840;2022-12-18T09:23:39;16.77;;;11.60;;
6019;SDS011;3038;51.122;6.840;2022-12-18T09:26:05;15.57;;;12.40;;
6019;SDS011;3038;51.122;6.840;2022-12-18T09:28:31;16.53;;;12.90;;
6019;SDS011;3038;51.122;6.840;2022-12-18T09:30:56;14.30;;;11.77;;
6019;SDS011;3038;51.122;6.840;2022-12-18T09:33:21;13.00;;;10.07;;
6019;SDS011;3038;51.122;6.840;2022-12-18T09:35:47;16.30;;;12.33;;
6019;SDS011;3038;51.122;6.840;2022-12-18T09:38:13;13.50;;;10.73;;
6019;SDS011;3038;51.122;6.840;2022-12-18T09:40:45;18.40;;;12.60;;
6019;SDS011;3038;51.122;6.840;2022-12-18T09:43:17;17.00;;;11.90;;
6019;SDS011;3038;51.122;6.840;2022-12-18T09:45:46;13.87;;;11.20;;
6019;SDS011;3038;51.122;6.840;2022-12-18T09:48:21;13.97;;;10.83;;
6019;SDS011;3038;51.122;6.840;2022-12-18T09:50:51;17.13;;;13.70;;
6019;SDS011;3038;51.122;6.840;2022-12-18T09:53:23;12.40;;;10.53;;
6019;SDS011;3038;51.122;6.840;2022-12-18T09:55:51;15.60;;;10.77;;
6019;SDS011;3038;51.122;6.840;2022-12-18T10:00:56;14.23;;;10.67;;
6019;SDS011;3038;51.122;6.840;2022-12-18T10:03:22;16.27;;;10.53;;
6019;SDS011;3038;51.122;6.840;2022-12-18T10:09:03;13.83;;;11.67;;
6019;SDS011;3038;51.122;6.840;2022-12-18T10:17:58;13.30;;;10.97;;
6019;SDS011;3038;51.122;6.840;2022-12-18T10:20:43;14.33;;;12.50;;
6019;SDS011;3038;51.122;6.840;2022-12-18T10:23:16;15.70;;;12.60;;
6019;SDS011;3038;51.122;6.840;2022-12-18T10:26:00;14.27;;;12.10;;
6019;SDS011;3038;51.122;6.840;2022-12-18T10:28:29;18.03;;;13.03;;
6019;SDS011;3038;51.122;6.840;2022-12-18T10:30:56;17.10;;;13.30;;
6019;SDS011;3038;51.122;6.840;2022-12-18T10:33:24;17.13;;;12.77;;
6019;SDS011;3038;51.122;6.840;2022-12-18T10:35:53;20.30;;;13.73;;
6019;SDS011;3038;51.122;6.840;2022-12-18T10:40:50;16.10;;;11.97;;
6019;SDS011;3038;51.122;6.840;2022-12-18T10:43:28;16.87;;;12.70;;
6019;SDS011;3038;51.122;6.840;2022-12-18T10:48:33;16.60;;;12.00;;
6019;SDS011;3038;51.122;6.840;2022-12-18T10:51:01;13.77;;;12.20;;
6019;SDS011;3038;51.122;6.840;2022-12-18T10:53:29;15.97;;;12.40;;
6019;SDS011;3038;51.122;6.840;2022-12-18T10:55:58;16.93;;;12.53;;
6019;SDS011;3038;51.122;6.840;2022-12-18T11:03:42;15.73;;;12.37;;
6019;SDS011;3038;51.122;6.840;2022-12-18T11:06:21;16.03;;;12.13;;
6019;SDS011;3038;51.122;6.840;2022-12-18T11:11:25;15.50;;;11.60;;
6019;SDS011;3038;51.122;6.840;2022-12-18T11:14:04;23.90;;;13.23;;
6019;SDS011;3038;51.122;6.840;2022-12-18T11:16:50;17.17;;;13.60;;
6019;SDS011;3038;51.122;6.840;2022-12-18T11:21:51;12.87;;;11.10;;
6019;SDS011;3038;51.122;6.840;2022-12-18T11:24:27;20.43;;;15.43;;
6019;SDS011;3038;51.122;6.840;2022-12-18T11:26:57;14.43;;;11.60;;
6019;SDS011;3038;51.122;6.840;2022-12-18T11:29:30;15.80;;;11.73;;
6019;SDS011;3038;51.122;6.840;2022-12-18T11:34:55;18.77;;;13.27;;
6019;SDS011;3038;51.122;6.840;2022-12-18T11:37:26;14.90;;;12.07;;
6019;SDS011;3038;51.122;6.840;2022-12-18T11:42:39;16.43;;;12.53;;
6019;SDS011;3038;51.122;6.840;2022-12-18T11:47:39;18.57;;;14.63;;
6019;SDS011;3038;51.122;6.840;2022-12-18T11:50:28;15.30;;;13.37;;
6019;SDS011;3038;51.122;6.840;2022-12-18T11:52:58;15.87;;;12.30;;
6019;SDS011;3038;51.122;6.840;2022-12-18T12:06:16;18.40;;;14.97;;
6019;SDS011;3038;51.122;6.840;2022-12-18T12:09:11;20.87;;;14.87;;
6019;SDS011;3038;51.122;6.840;2022-12-18T12:12:02;24.70;;;14.10;;
6019;SDS011;3038;51.122;6.840;2022-12-18T12:15:10;19.73;;;13.70;;
6019;SDS011;3038;51.122;6.840;2022-12-18T12:21:16;20.83;;;15.63;;
6019;SDS011;3038;51.122;6.840;2022-12-18T12:29:36;19.57;;;14.77;;
6019;SDS011;3038;51.122;6.840;2022-12-18T12:34:38;17.90;;;13.40;;
6019;SDS011;3038;51.122;6.840;2022-12-18T12:40:00;21.87;;;14.63;;
6019;SDS011;3038;51.122;6.840;2022-12-18T12:48:35;18.60;;;15.47;;
6019;SDS011;3038;51.122;6.840;2022-12-18T12:53:46;23.43;;;16.43;;
6019;SDS011;3038;51.122;6.840;2022-12-18T12:56:13;23.97;;;17.00;;
6019;SDS011;3038;51.122;6.840;2022-12-18T13:01:24;19.47;;;15.60;;
6019;SDS011;3038;51.122;6.840;2022-12-18T13:07:05;22.63;;;16.70;;
6019;SDS011;3038;51.122;6.840;2022-12-18T13:10:10;23.93;;;16.67;;
6019;SDS011;3038;51.122;6.840;2022-12-18T13:12:56;23.80;;;16.00;;
6019;SDS011;3038;51.122;6.840;2022-12-18T13:25:49;24.07;;;16.43;;
6019;SDS011;3038;51.122;6.840;2022-12-18T13:28:16;22.70;;;17.17;;
6019;SDS011;3038;51.122;6.840;2022-12-18T13:40:56;25.40;;;17.53;;
6019;SDS011;3038;51.122;6.840;2022-12-18T13:43:41;22.43;;;16.93;;
6019;SDS011;3038;51.122;6.840;2022-12-18T13:51:39;25.97;;;19.27;;
6019;SDS011;3038;51.122;6.840;2022-12-18T13:56:43;24.33;;;18.27;;
6019;SDS011;3038;51.122;6.840;2022-12-18T13:59:14;19.70;;;14.70;;
6019;SDS011;3038;51.122;6.840;2022-12-18T14:01:51;24.37;;;17.73;;
6019;SDS011;3038;51.122;6.840;2022-12-18T14:04:18;26.60;;;16.17;;
6019;SDS011;3038;51.122;6.840;2022-12-18T14:06:53;23.90;;;16.33;;
6019;SDS011;3038;51.122;6.840;2022-12-18T14:09:27;24.50;;;18.10;;
6019;SDS011;3038;51.122;6.840;2022-12-18T14:11:55;25.30;;;18.00;;
6019;SDS011;3038;51.122;6.840;2022-12-18T14:14:46;24.57;;;18.87;;
6019;SDS011;3038;51.122;6.840;2022-12-18T14:17:14;29.60;;;18.57;;
6019;SDS011;3038;51.122;6.840;2022-12-18T14:19:41;25.30;;;19.13;;
6019;SDS011;3038;51.122;6.840;2022-12-18T14:22:13;27.60;;;20.73;;
6019;SDS011;3038;51.122;6.840;2022-12-18T14:24:41;26.50;;;17.67;;
6019;SDS011;3038;51.122;6.840;2022-12-18T14:27:20;24.90;;;17.97;;
6019;SDS011;3038;51.122;6.840;2022-12-18T14:29:49;24.17;;;17.43;;
6019;SDS011;3038;51.122;6.840;2022-12-18T14:32:15;30.60;;;19.93;;
6019;SDS011;3038;51.122;6.840;2022-12-18T14:34:42;27.33;;;19.33;;
6019;SDS011;3038;51.122;6.840;2022-12-18T14:37:10;26.20;;;19.80;;
6019;SDS011;3038;51.122;6.840;2022-12-18T14:39:36;27.30;;;18.93;;
6019;SDS011;3038;51.122;6.840;2022-12-18T14:42:02;37.30;;;28.50;;
6019;SDS011;3038;51.122;6.840;2022-12-18T14:44:27;35.80;;;25.73;;
6019;SDS011;3038;51.122;6.840;2022-12-18T14:46:53;30.30;;;20.37;;
6019;SDS011;3038;51.122;6.840;2022-12-18T14:49:26;24.73;;;17.60;;
6019;SDS011;3038;51.122;6.840;2022-12-18T14:52:00;33.50;;;20.77;;
6019;SDS011;3038;51.122;6.840;2022-12-18T14:54:27;28.37;;;20.87;;
6019;SDS011;3038;51.122;6.840;2022-12-18T14:57:01;25.03;;;19.13;;
6019;SDS011;3038;51.122;6.840;2022-12-18T14:59:46;30.83;;;21.70;;
6019;SDS011;3038;51.122;6.840;2022-12-18T15:04:48;25.10;;;18.47;;
6019;SDS011;3038;51.122;6.840;2022-12-18T15:07:42;28.03;;;18.43;;
6019;SDS011;3038;51.122;6.840;2022-12-18T15:12:41;23.17;;;17.03;;
6019;SDS011;3038;51.122;6.840;2022-12-18T15:18:01;24.90;;;19.70;;
6019;SDS011;3038;51.122;6.840;2022-12-18T15:23:23;31.00;;;19.70;;
6019;SDS011;3038;51.122;6.840;2022-12-18T15:26:10;25.63;;;18.90;;
6019;SDS011;3038;51.122;6.840;2022-12-18T15:33:42;25.47;;;18.50;;
6019;SDS011;3038;51.122;6.840;2022-12-18T15:36:25;27.03;;;17.70;;
6019;SDS011;3038;51.122;6.840;2022-12-18T15:38:56;25.43;;;18.47;;
6019;SDS011;3038;51.122;6.840;2022-12-18T15:41:25;27.90;;;19.10;;
6019;SDS011;3038;51.122;6.840;2022-12-18T15:43:52;24.80;;;17.77;;
6019;SDS011;3038;51.122;6.840;2022-12-18T15:46:20;26.60;;;19.30;;
6019;SDS011;3038;51.122;6.840;2022-12-18T15:48:47;26.37;;;19.13;;
6019;SDS011;3038;51.122;6.840;2022-12-18T15:51:18;28.43;;;19.40;;
6019;SDS011;3038;51.122;6.840;2022-12-18T15:53:47;30.33;;;21.50;;
6019;SDS011;3038;51.122;6.840;2022-12-18T15:56:13;26.70;;;21.10;;
6019;SDS011;3038;51.122;6.840;2022-12-18T15:58:59;27.97;;;19.63;;
6019;SDS011;3038;51.122;6.840;2022-12-18T16:01:26;26.83;;;18.03;;
6019;SDS011;3038;51.122;6.840;2022-12-18T16:03:53;26.57;;;19.80;;
6019;SDS011;3038;51.122;6.840;2022-12-18T16:06:20;29.80;;;20.57;;
6019;SDS011;3038;51.122;6.840;2022-12-18T16:08:46;28.60;;;22.00;;
6019;SDS011;3038;51.122;6.840;2022-12-18T16:11:21;32.30;;;21.27;;
6019;SDS011;3038;51.122;6.840;2022-12-18T16:14:05;23.50;;;17.53;;
6019;SDS011;3038;51.122;6.840;2022-12-18T16:16:31;34.20;;;21.53;;
6019;SDS011;3038;51.122;6.840;2022-12-18T16:18:57;26.83;;;20.17;;
6019;SDS011;3038;51.122;6.840;2022-12-18T16:21:22;32.80;;;22.23;;
6019;SDS011;3038;51.122;6.840;2022-12-18T16:23:48;30.60;;;20.70;;
6019;SDS011;3038;51.122;6.840;2022-12-18T16:26:13;36.93;;;22.10;;
6019;SDS011;3038;51.122;6.840;2022-12-18T16:28:38;33.10;;;23.33;;
6019;SDS011;3038;51.122;6.840;2022-12-18T16:31:04;31.10;;;22.17;;
6019;SDS011;3038;51.122;6.840;2022-12-18T16:33:29;33.20;;;21.93;;
6019;SDS011;3038;51.122;6.840;2022-12-18T16:35:55;36.67;;;23.77;;
6019;SDS011;3038;51.122;6.840;2022-12-18T16:38:20;32.33;;;21.93;;
6019;SDS011;3038;51.122;6.840;2022-12-18T16:40:45;34.97;;;23.83;;
6019;SDS011;3038;51.122;6.840;2022-12-18T16:43:29;25.47;;;19.10;;
6019;SDS011;3038;51.122;6.840;2022-12-18T16:45:55;29.47;;;20.03;;
6019;SDS011;3038;51.122;6.840;2022-12-18T16:48:22;30.73;;;20.80;;
6019;SDS011;3038;51.122;6.840;2022-12-18T16:50:47;29.83;;;19.10;;
6019;SDS011;3038;51.122;6.840;2022-12-18T16:53:13;27.60;;;21.50;;
6019;SDS011;3038;51.122;6.840;2022-12-18T16:55:38;33.40;;;24.07;;
6019;SDS011;3038;51.122;6.840;2022-12-18T16:58:03;33.47;;;23.27;;
6019;SDS011;3038;51.122;6.840;2022-12-18T17:00:29;35.23;;;23.30;;
6019;SDS011;3038;51.122;6.840;2022-12-18T17:02:54;30.57;;;21.70;;
6019;SDS011;3038;51.122;6.840;2022-12-18T17:05:19;35.73;;;23.43;;
6019;SDS011;3038;51.122;6.840;2022-12-18T17:07:45;32.10;;;22.87;;
6019;SDS011;3038;51.122;6.840;2022-12-18T17:10:10;34.03;;;23.67;;
6019;SDS011;3038;51.122;6.840;2022-12-18T17:12:35;28.80;;;21.30;;
6019;SDS011;3038;51.122;6.840;2022-12-18T17:15:01;33.00;;;24.10;;
6019;SDS011;3038;51.122;6.840;2022-12-18T17:17:26;32.87;;;22.30;;
6019;SDS011;3038;51.122;6.840;2022-12-18T17:19:52;32.10;;;22.60;;
6019;SDS011;3038;51.122;6.840;2022-12-18T17:22:17;39.20;;;25.67;;